sensor_id;sensor_type;location;lat;lon;timestamp;temperature;humidity
33837;DHT22;20140;49.356;8.812;2023-01-19T00:00:43;-3.10;99.90
33837;DHT22;20140;49.356;8.812;2023-01-19T00:03:08;-3.20;99.90
33837;DHT22;20140;49.356;8.812;2023-01-19T00:05:41;-3.20;99.90
33837;DHT22;20140;49.356;8.812;2023-01-19T00:08:07;-3.20;99.90
33837;DHT22;20140;49.356;8.812;2023-01-19T00:11:18;-3.30;99.90
33837;DHT22;20140;49.356;8.812;2023-01-19T00:13:44;-3.20;99.90
33837;DHT22;20140;49.356;8.812;2023-01-19T00:16:18;-3.20;99.90
33837;DHT22;20140;49.356;8.812;2023-01-19T00:35:36;-3.10;99.90
33837;DHT22;20140;49.356;8.812;2023-01-19T00:41:27;-2.90;99.90
33837;DHT22;20140;49.356;8.812;2023-01-19T00:44:37;-2.90;99.90
33837;DHT22;20140;49.356;8.812;2023-01-19T00:47:02;-3.00;99.90
33837;DHT22;20140;49.356;8.812;2023-01-19T00:49:30;-3.00;99.90
33837;DHT22;20140;49.356;8.812;2023-01-19T01:08:46;-2.70;99.90
33837;DHT22;20140;49.356;8.812;2023-01-19T01:11:12;-2.60;99.90
33837;DHT22;20140;49.356;8.812;2023-01-19T01:13:37;-2.70;99.90
33837;DHT22;20140;49.356;8.812;2023-01-19T01:16:03;-2.60;99.90
33837;DHT22;20140;49.356;8.812;2023-01-19T01:18:29;-2.60;99.90
33837;DHT22;20140;49.356;8.812;2023-01-19T01:21:05;-2.50;99.90
33837;DHT22;20140;49.356;8.812;2023-01-19T01:23:30;-2.40;99.90
33837;DHT22;20140;49.356;8.812;2023-01-19T01:25:56;-2.40;99.90
33837;DHT22;20140;49.356;8.812;2023-01-19T01:28:24;-2.40;99.90
33837;DHT22;20140;49.356;8.812;2023-01-19T01:30:54;-2.40;99.90
33837;DHT22;20140;49.356;8.812;2023-01-19T01:33:20;-2.40;99.90
33837;DHT22;20140;49.356;8.812;2023-01-19T01:35:47;-2.40;99.90
33837;DHT22;20140;49.356;8.812;2023-01-19T01:44:52;-2.20;99.90
33837;DHT22;20140;49.356;8.812;2023-01-19T01:47:24;-2.20;99.90
33837;DHT22;20140;49.356;8.812;2023-01-19T01:49:57;-2.20;99.90
33837;DHT22;20140;49.356;8.812;2023-01-19T01:52:26;-2.10;99.90
33837;DHT22;20140;49.356;8.812;2023-01-19T01:54:56;-2.10;99.90
33837;DHT22;20140;49.356;8.812;2023-01-19T01:57:22;-2.20;99.90
33837;DHT22;20140;49.356;8.812;2023-01-19T01:59:53;-2.10;99.90
33837;DHT22;20140;49.356;8.812;2023-01-19T02:02:24;-2.00;99.90
33837;DHT22;20140;49.356;8.812;2023-01-19T02:08:49;-1.90;99.90
33837;DHT22;20140;49.356;8.812;2023-01-19T02:11:35;-1.90;99.90
33837;DHT22;20140;49.356;8.812;2023-01-19T02:14:19;-2.00;99.90
33837;DHT22;20140;49.356;8.812;2023-01-19T02:16:45;-1.90;99.90
33837;DHT22;20140;49.356;8.812;2023-01-19T02:19:14;-1.90;99.90
33837;DHT22;20140;49.356;8.812;2023-01-19T02:21:51;-1.80;99.90
33837;DHT22;20140;49.356;8.812;2023-01-19T02:24:19;-1.80;99.90
33837;DHT22;20140;49.356;8.812;2023-01-19T02:26:46;-1.80;99.90
33837;DHT22;20140;49.356;8.812;2023-01-19T02:29:15;-1.80;99.90
33837;DHT22;20140;49.356;8.812;2023-01-19T02:31:42;-1.80;99.90
33837;DHT22;20140;49.356;8.812;2023-01-19T02:34:10;-1.70;99.90
33837;DHT22;20140;49.356;8.812;2023-01-19T02:36:55;-1.70;99.90
33837;DHT22;20140;49.356;8.812;2023-01-19T02:39:29;-1.70;99.90
33837;DHT22;20140;49.356;8.812;2023-01-19T02:42:03;-1.80;99.90
33837;DHT22;20140;49.356;8.812;2023-01-19T02:44:31;-1.80;99.90
33837;DHT22;20140;49.356;8.812;2023-01-19T02:46:57;-1.80;99.90
33837;DHT22;20140;49.356;8.812;2023-01-19T02:49:27;-1.70;99.90
33837;DHT22;20140;49.356;8.812;2023-01-19T02:51:53;-1.80;99.90
33837;DHT22;20140;49.356;8.812;2023-01-19T02:57:19;-1.70;99.90
33837;DHT22;20140;49.356;8.812;2023-01-19T03:00:04;-1.70;99.90
33837;DHT22;20140;49.356;8.812;2023-01-19T03:25:42;-1.50;99.90
33837;DHT22;20140;49.356;8.812;2023-01-19T03:28:07;-1.50;99.90
33837;DHT22;20140;49.356;8.812;2023-01-19T03:40:40;-1.30;99.90
33837;DHT22;20140;49.356;8.812;2023-01-19T03:43:07;-1.30;99.90
33837;DHT22;20140;49.356;8.812;2023-01-19T04:05:38;-1.10;99.90
33837;DHT22;20140;49.356;8.812;2023-01-19T04:11:26;-1.00;99.90
33837;DHT22;20140;49.356;8.812;2023-01-19T04:17:14;-0.90;99.90
33837;DHT22;20140;49.356;8.812;2023-01-19T04:19:39;-0.90;99.90
33837;DHT22;20140;49.356;8.812;2023-01-19T04:22:05;-0.90;99.90
33837;DHT22;20140;49.356;8.812;2023-01-19T04:24:30;-0.80;99.90
33837;DHT22;20140;49.356;8.812;2023-01-19T04:26:56;-0.60;99.90
33837;DHT22;20140;49.356;8.812;2023-01-19T04:29:21;-0.60;99.90
33837;DHT22;20140;49.356;8.812;2023-01-19T04:31:48;-0.60;99.90
33837;DHT22;20140;49.356;8.812;2023-01-19T04:34:14;-0.70;99.90
33837;DHT22;20140;49.356;8.812;2023-01-19T04:36:39;-0.80;99.90
33837;DHT22;20140;49.356;8.812;2023-01-19T04:39:05;-0.80;99.90
33837;DHT22;20140;49.356;8.812;2023-01-19T04:41:33;-0.80;99.90
33837;DHT22;20140;49.356;8.812;2023-01-19T04:43:58;-0.70;99.90
33837;DHT22;20140;49.356;8.812;2023-01-19T04:46:24;-0.60;99.90
33837;DHT22;20140;49.356;8.812;2023-01-19T04:48:50;-0.60;99.90
33837;DHT22;20140;49.356;8.812;2023-01-19T04:51:15;-0.70;99.90
33837;DHT22;20140;49.356;8.812;2023-01-19T04:53:41;-0.60;99.90
33837;DHT22;20140;49.356;8.812;2023-01-19T04:56:06;-0.60;99.90
33837;DHT22;20140;49.356;8.812;2023-01-19T04:58:32;-0.60;99.90
33837;DHT22;20140;49.356;8.812;2023-01-19T05:00:57;-0.60;99.90
33837;DHT22;20140;49.356;8.812;2023-01-19T05:03:23;-0.60;99.90
33837;DHT22;20140;49.356;8.812;2023-01-19T05:05:48;-0.60;99.90
33837;DHT22;20140;49.356;8.812;2023-01-19T05:08:14;-0.50;99.90
33837;DHT22;20140;49.356;8.812;2023-01-19T05:10:39;-0.50;99.90
33837;DHT22;20140;49.356;8.812;2023-01-19T05:16:14;-0.50;99.90
33837;DHT22;20140;49.356;8.812;2023-01-19T05:18:40;-0.40;99.90
33837;DHT22;20140;49.356;8.812;2023-01-19T05:21:06;-0.40;99.90
33837;DHT22;20140;49.356;8.812;2023-01-19T05:23:32;-0.40;99.90
33837;DHT22;20140;49.356;8.812;2023-01-19T05:25:59;-0.40;99.90
33837;DHT22;20140;49.356;8.812;2023-01-19T05:28:29;-0.40;99.90
33837;DHT22;20140;49.356;8.812;2023-01-19T05:30:54;-0.30;99.90
33837;DHT22;20140;49.356;8.812;2023-01-19T05:33:21;-0.30;99.90
33837;DHT22;20140;49.356;8.812;2023-01-19T05:35:50;-0.30;99.90
33837;DHT22;20140;49.356;8.812;2023-01-19T05:38:16;-0.30;99.90
33837;DHT22;20140;49.356;8.812;2023-01-19T05:40:41;-0.30;99.90
33837;DHT22;20140;49.356;8.812;2023-01-19T05:43:07;-0.30;99.90
33837;DHT22;20140;49.356;8.812;2023-01-19T05:49:08;-0.30;99.90
33837;DHT22;20140;49.356;8.812;2023-01-19T05:51:34;-0.20;99.90
33837;DHT22;20140;49.356;8.812;2023-01-19T05:54:03;-0.20;99.90
33837;DHT22;20140;49.356;8.812;2023-01-19T05:56:29;-0.20;99.90
33837;DHT22;20140;49.356;8.812;2023-01-19T05:58:55;-0.10;99.90
33837;DHT22;20140;49.356;8.812;2023-01-19T06:01:20;-0.10;99.90
33837;DHT22;20140;49.356;8.812;2023-01-19T06:03:46;0.00;99.90
33837;DHT22;20140;49.356;8.812;2023-01-19T06:06:13;0.00;99.90
33837;DHT22;20140;49.356;8.812;2023-01-19T06:08:39;0.10;99.90
33837;DHT22;20140;49.356;8.812;2023-01-19T06:11:05;0.20;99.90
33837;DHT22;20140;49.356;8.812;2023-01-19T06:13:32;0.20;99.90
33837;DHT22;20140;49.356;8.812;2023-01-19T06:15:58;0.20;99.90
33837;DHT22;20140;49.356;8.812;2023-01-19T06:18:24;0.20;99.90
33837;DHT22;20140;49.356;8.812;2023-01-19T06:20:50;0.30;99.90
33837;DHT22;20140;49.356;8.812;2023-01-19T06:23:16;0.40;99.90
33837;DHT22;20140;49.356;8.812;2023-01-19T06:25:42;0.40;99.90
33837;DHT22;20140;49.356;8.812;2023-01-19T06:28:07;0.30;99.90
33837;DHT22;20140;49.356;8.812;2023-01-19T06:30:33;0.30;99.90
33837;DHT22;20140;49.356;8.812;2023-01-19T06:32:58;0.30;99.90
33837;DHT22;20140;49.356;8.812;2023-01-19T06:35:24;0.40;99.90
33837;DHT22;20140;49.356;8.812;2023-01-19T06:37:51;0.30;99.90
33837;DHT22;20140;49.356;8.812;2023-01-19T06:40:17;0.40;99.90
33837;DHT22;20140;49.356;8.812;2023-01-19T06:42:43;0.40;99.90
33837;DHT22;20140;49.356;8.812;2023-01-19T06:45:08;0.30;99.90
33837;DHT22;20140;49.356;8.812;2023-01-19T06:47:34;0.40;99.90
33837;DHT22;20140;49.356;8.812;2023-01-19T06:50:00;0.40;99.90
33837;DHT22;20140;49.356;8.812;2023-01-19T06:52:26;0.50;99.90
33837;DHT22;20140;49.356;8.812;2023-01-19T06:54:52;0.50;99.90
33837;DHT22;20140;49.356;8.812;2023-01-19T06:57:18;0.50;99.90
33837;DHT22;20140;49.356;8.812;2023-01-19T06:59:43;0.60;99.90
33837;DHT22;20140;49.356;8.812;2023-01-19T07:02:09;0.60;99.90
33837;DHT22;20140;49.356;8.812;2023-01-19T07:04:44;0.60;99.90
33837;DHT22;20140;49.356;8.812;2023-01-19T07:07:09;0.60;99.90
33837;DHT22;20140;49.356;8.812;2023-01-19T07:09:35;0.60;99.90
33837;DHT22;20140;49.356;8.812;2023-01-19T07:12:00;0.70;99.90
33837;DHT22;20140;49.356;8.812;2023-01-19T07:14:26;0.70;99.90
33837;DHT22;20140;49.356;8.812;2023-01-19T07:16:57;0.60;99.90
33837;DHT22;20140;49.356;8.812;2023-01-19T07:19:23;0.60;99.90
33837;DHT22;20140;49.356;8.812;2023-01-19T07:21:48;0.50;99.90
33837;DHT22;20140;49.356;8.812;2023-01-19T07:24:14;0.50;99.90
33837;DHT22;20140;49.356;8.812;2023-01-19T07:26:39;0.50;99.90
33837;DHT22;20140;49.356;8.812;2023-01-19T07:29:05;0.50;99.90
33837;DHT22;20140;49.356;8.812;2023-01-19T07:31:30;0.50;99.90
33837;DHT22;20140;49.356;8.812;2023-01-19T07:33:56;0.60;99.90
33837;DHT22;20140;49.356;8.812;2023-01-19T07:36:22;0.60;99.90
33837;DHT22;20140;49.356;8.812;2023-01-19T07:38:47;0.60;99.90
33837;DHT22;20140;49.356;8.812;2023-01-19T07:41:13;0.60;99.90
33837;DHT22;20140;49.356;8.812;2023-01-19T07:43:38;0.60;99.90
33837;DHT22;20140;49.356;8.812;2023-01-19T07:46:05;0.70;99.90
33837;DHT22;20140;49.356;8.812;2023-01-19T07:48:31;0.70;99.90
33837;DHT22;20140;49.356;8.812;2023-01-19T07:51:00;0.70;99.90
33837;DHT22;20140;49.356;8.812;2023-01-19T07:53:29;0.70;99.90
33837;DHT22;20140;49.356;8.812;2023-01-19T07:55:56;0.70;99.90
33837;DHT22;20140;49.356;8.812;2023-01-19T07:58:23;0.70;99.90
33837;DHT22;20140;49.356;8.812;2023-01-19T08:00:48;0.70;99.90
33837;DHT22;20140;49.356;8.812;2023-01-19T08:03:15;0.70;99.90
33837;DHT22;20140;49.356;8.812;2023-01-19T08:05:42;0.80;99.90
33837;DHT22;20140;49.356;8.812;2023-01-19T08:08:07;0.80;99.90
33837;DHT22;20140;49.356;8.812;2023-01-19T08:10:33;0.80;99.90
33837;DHT22;20140;49.356;8.812;2023-01-19T08:12:59;0.80;99.90
33837;DHT22;20140;49.356;8.812;2023-01-19T08:15:24;0.80;99.90
33837;DHT22;20140;49.356;8.812;2023-01-19T08:18:01;0.80;99.90
33837;DHT22;20140;49.356;8.812;2023-01-19T08:20:28;0.80;99.90
33837;DHT22;20140;49.356;8.812;2023-01-19T08:22:54;0.90;99.90
33837;DHT22;20140;49.356;8.812;2023-01-19T08:25:40;0.90;99.90
33837;DHT22;20140;49.356;8.812;2023-01-19T08:28:07;0.90;99.90
33837;DHT22;20140;49.356;8.812;2023-01-19T08:30:33;0.90;99.90
33837;DHT22;20140;49.356;8.812;2023-01-19T08:33:00;0.80;99.90
33837;DHT22;20140;49.356;8.812;2023-01-19T08:35:30;0.90;99.90
33837;DHT22;20140;49.356;8.812;2023-01-19T08:37:56;0.90;99.90
33837;DHT22;20140;49.356;8.812;2023-01-19T08:40:26;0.90;99.90
33837;DHT22;20140;49.356;8.812;2023-01-19T08:42:51;0.90;99.90
33837;DHT22;20140;49.356;8.812;2023-01-19T08:45:17;1.00;99.90
33837;DHT22;20140;49.356;8.812;2023-01-19T08:47:42;1.00;99.90
33837;DHT22;20140;49.356;8.812;2023-01-19T08:50:08;1.00;99.90
33837;DHT22;20140;49.356;8.812;2023-01-19T08:52:35;1.00;99.90
33837;DHT22;20140;49.356;8.812;2023-01-19T08:55:00;1.00;99.90
33837;DHT22;20140;49.356;8.812;2023-01-19T08:57:26;1.00;99.90
33837;DHT22;20140;49.356;8.812;2023-01-19T08:59:52;1.00;99.90
33837;DHT22;20140;49.356;8.812;2023-01-19T09:02:17;1.00;99.90
33837;DHT22;20140;49.356;8.812;2023-01-19T09:04:43;1.10;99.90
33837;DHT22;20140;49.356;8.812;2023-01-19T09:07:08;1.10;99.90
33837;DHT22;20140;49.356;8.812;2023-01-19T09:09:34;1.10;99.90
33837;DHT22;20140;49.356;8.812;2023-01-19T09:12:02;1.10;99.90
33837;DHT22;20140;49.356;8.812;2023-01-19T09:14:27;1.10;99.90
33837;DHT22;20140;49.356;8.812;2023-01-19T09:16:53;1.10;99.90
33837;DHT22;20140;49.356;8.812;2023-01-19T09:19:20;1.10;99.90
33837;DHT22;20140;49.356;8.812;2023-01-19T09:21:45;1.10;99.90
33837;DHT22;20140;49.356;8.812;2023-01-19T09:24:11;1.10;99.90
33837;DHT22;20140;49.356;8.812;2023-01-19T09:26:36;1.10;99.90
33837;DHT22;20140;49.356;8.812;2023-01-19T09:29:04;1.20;99.90
33837;DHT22;20140;49.356;8.812;2023-01-19T09:31:30;1.20;99.90
33837;DHT22;20140;49.356;8.812;2023-01-19T09:33:55;1.20;99.90
33837;DHT22;20140;49.356;8.812;2023-01-19T09:36:21;1.20;99.90
33837;DHT22;20140;49.356;8.812;2023-01-19T09:38:46;1.30;99.90
33837;DHT22;20140;49.356;8.812;2023-01-19T09:41:19;1.30;99.90
33837;DHT22;20140;49.356;8.812;2023-01-19T09:43:58;1.40;99.90
33837;DHT22;20140;49.356;8.812;2023-01-19T09:46:39;1.30;99.90
33837;DHT22;20140;49.356;8.812;2023-01-19T09:49:12;1.40;99.90
33837;DHT22;20140;49.356;8.812;2023-01-19T09:51:42;1.50;99.90
33837;DHT22;20140;49.356;8.812;2023-01-19T09:54:16;1.40;99.90
33837;DHT22;20140;49.356;8.812;2023-01-19T09:56:46;1.30;99.90
33837;DHT22;20140;49.356;8.812;2023-01-19T09:59:20;1.40;99.90
33837;DHT22;20140;49.356;8.812;2023-01-19T10:05:02;1.40;99.90
33837;DHT22;20140;49.356;8.812;2023-01-19T10:07:52;1.40;99.90
33837;DHT22;20140;49.356;8.812;2023-01-19T10:10:27;1.50;99.90
33837;DHT22;20140;49.356;8.812;2023-01-19T10:15:39;1.50;99.90
33837;DHT22;20140;49.356;8.812;2023-01-19T10:20:47;1.50;99.90
33837;DHT22;20140;49.356;8.812;2023-01-19T10:23:31;1.50;99.90
33837;DHT22;20140;49.356;8.812;2023-01-19T10:26:02;1.50;99.90
33837;DHT22;20140;49.356;8.812;2023-01-19T10:28:30;1.60;99.90
33837;DHT22;20140;49.356;8.812;2023-01-19T10:30:56;1.60;99.90
33837;DHT22;20140;49.356;8.812;2023-01-19T10:33:21;1.60;99.90
33837;DHT22;20140;49.356;8.812;2023-01-19T10:35:47;1.60;99.90
33837;DHT22;20140;49.356;8.812;2023-01-19T10:38:14;1.70;99.90
33837;DHT22;20140;49.356;8.812;2023-01-19T10:40:55;1.70;99.90
33837;DHT22;20140;49.356;8.812;2023-01-19T10:43:34;1.80;99.90
33837;DHT22;20140;49.356;8.812;2023-01-19T10:46:20;1.90;99.90
33837;DHT22;20140;49.356;8.812;2023-01-19T10:48:48;1.90;99.90
33837;DHT22;20140;49.356;8.812;2023-01-19T10:51:14;2.00;99.90
33837;DHT22;20140;49.356;8.812;2023-01-19T10:53:44;1.90;99.90
33837;DHT22;20140;49.356;8.812;2023-01-19T10:56:22;1.90;99.90
33837;DHT22;20140;49.356;8.812;2023-01-19T10:58:48;2.00;99.90
33837;DHT22;20140;49.356;8.812;2023-01-19T11:01:25;2.00;99.90
33837;DHT22;20140;49.356;8.812;2023-01-19T11:03:52;1.90;99.90
33837;DHT22;20140;49.356;8.812;2023-01-19T11:06:29;2.00;99.90
33837;DHT22;20140;49.356;8.812;2023-01-19T11:09:27;2.00;99.90
33837;DHT22;20140;49.356;8.812;2023-01-19T11:11:52;1.90;99.90
33837;DHT22;20140;49.356;8.812;2023-01-19T11:14:21;1.90;99.90
33837;DHT22;20140;49.356;8.812;2023-01-19T11:16:50;1.90;99.90
33837;DHT22;20140;49.356;8.812;2023-01-19T11:19:20;2.10;99.90
33837;DHT22;20140;49.356;8.812;2023-01-19T11:21:46;2.10;99.90
33837;DHT22;20140;49.356;8.812;2023-01-19T11:24:12;2.10;99.90
33837;DHT22;20140;49.356;8.812;2023-01-19T11:26:46;2.20;99.90
33837;DHT22;20140;49.356;8.812;2023-01-19T11:29:25;2.20;99.90
33837;DHT22;20140;49.356;8.812;2023-01-19T11:31:52;2.30;99.90
33837;DHT22;20140;49.356;8.812;2023-01-19T11:34:34;2.20;99.90
33837;DHT22;20140;49.356;8.812;2023-01-19T11:39:55;2.20;99.90
33837;DHT22;20140;49.356;8.812;2023-01-19T11:42:21;2.20;99.90
33837;DHT22;20140;49.356;8.812;2023-01-19T11:45:11;2.20;99.90
33837;DHT22;20140;49.356;8.812;2023-01-19T11:53:03;2.10;99.90
33837;DHT22;20140;49.356;8.812;2023-01-19T11:56:05;2.10;99.90
33837;DHT22;20140;49.356;8.812;2023-01-19T11:58:30;2.10;99.90
33837;DHT22;20140;49.356;8.812;2023-01-19T12:03:33;2.20;99.90
33837;DHT22;20140;49.356;8.812;2023-01-19T12:06:08;2.20;99.90
33837;DHT22;20140;49.356;8.812;2023-01-19T12:08:38;2.20;99.90
33837;DHT22;20140;49.356;8.812;2023-01-19T12:11:07;2.20;99.90
33837;DHT22;20140;49.356;8.812;2023-01-19T12:13:35;2.30;99.90
33837;DHT22;20140;49.356;8.812;2023-01-19T12:16:11;2.40;99.90
33837;DHT22;20140;49.356;8.812;2023-01-19T12:18:55;2.30;99.90
33837;DHT22;20140;49.356;8.812;2023-01-19T12:21:21;2.40;99.90
33837;DHT22;20140;49.356;8.812;2023-01-19T12:24:04;2.50;99.90
33837;DHT22;20140;49.356;8.812;2023-01-19T12:26:43;2.50;99.90
33837;DHT22;20140;49.356;8.812;2023-01-19T12:29:25;2.40;99.90
33837;DHT22;20140;49.356;8.812;2023-01-19T12:34:49;2.60;99.90
33837;DHT22;20140;49.356;8.812;2023-01-19T12:37:38;2.60;99.90
33837;DHT22;20140;49.356;8.812;2023-01-19T12:40:36;2.60;99.90
33837;DHT22;20140;49.356;8.812;2023-01-19T12:43:04;2.50;99.90
33837;DHT22;20140;49.356;8.812;2023-01-19T12:45:35;2.50;99.90
33837;DHT22;20140;49.356;8.812;2023-01-19T12:48:02;2.50;99.90
33837;DHT22;20140;49.356;8.812;2023-01-19T12:50:34;2.50;99.90
33837;DHT22;20140;49.356;8.812;2023-01-19T12:53:02;2.50;99.90
33837;DHT22;20140;49.356;8.812;2023-01-19T12:55:31;2.60;99.90
33837;DHT22;20140;49.356;8.812;2023-01-19T12:58:15;2.70;99.90
33837;DHT22;20140;49.356;8.812;2023-01-19T13:00:44;2.80;99.90
33837;DHT22;20140;49.356;8.812;2023-01-19T13:13:23;3.30;99.90
33837;DHT22;20140;49.356;8.812;2023-01-19T13:15:50;3.90;99.90
33837;DHT22;20140;49.356;8.812;2023-01-19T13:18:37;4.10;99.90
33837;DHT22;20140;49.356;8.812;2023-01-19T13:21:06;3.90;99.90
33837;DHT22;20140;49.356;8.812;2023-01-19T13:26:24;3.20;99.90
33837;DHT22;20140;49.356;8.812;2023-01-19T13:28:54;3.20;99.90
33837;DHT22;20140;49.356;8.812;2023-01-19T13:31:22;3.20;99.90
33837;DHT22;20140;49.356;8.812;2023-01-19T13:33:52;3.10;99.90
33837;DHT22;20140;49.356;8.812;2023-01-19T13:36:31;2.90;99.90
33837;DHT22;20140;49.356;8.812;2023-01-19T13:39:00;3.00;99.90
33837;DHT22;20140;49.356;8.812;2023-01-19T13:41:30;3.10;99.90
33837;DHT22;20140;49.356;8.812;2023-01-19T13:44:02;3.00;99.90
33837;DHT22;20140;49.356;8.812;2023-01-19T13:46:29;3.00;99.90
33837;DHT22;20140;49.356;8.812;2023-01-19T13:49:26;3.00;99.90
33837;DHT22;20140;49.356;8.812;2023-01-19T13:52:14;3.00;99.90
33837;DHT22;20140;49.356;8.812;2023-01-19T13:54:52;3.00;99.90
33837;DHT22;20140;49.356;8.812;2023-01-19T14:05:37;3.00;99.90
33837;DHT22;20140;49.356;8.812;2023-01-19T14:10:34;3.00;99.90
33837;DHT22;20140;49.356;8.812;2023-01-19T14:13:10;3.00;99.90
33837;DHT22;20140;49.356;8.812;2023-01-19T14:15:37;3.00;99.90
33837;DHT22;20140;49.356;8.812;2023-01-19T14:18:23;2.90;99.90
33837;DHT22;20140;49.356;8.812;2023-01-19T14:20:58;2.90;99.90
33837;DHT22;20140;49.356;8.812;2023-01-19T14:29:23;2.90;99.90
33837;DHT22;20140;49.356;8.812;2023-01-19T14:31:50;2.80;99.90
33837;DHT22;20140;49.356;8.812;2023-01-19T14:34:36;2.80;99.90
33837;DHT22;20140;49.356;8.812;2023-01-19T14:39:44;2.80;99.90
33837;DHT22;20140;49.356;8.812;2023-01-19T14:42:14;2.80;99.90
33837;DHT22;20140;49.356;8.812;2023-01-19T14:44:45;2.80;99.90
33837;DHT22;20140;49.356;8.812;2023-01-19T14:47:28;2.80;99.90
33837;DHT22;20140;49.356;8.812;2023-01-19T14:49:56;2.70;99.90
33837;DHT22;20140;49.356;8.812;2023-01-19T14:54:52;2.70;99.90
33837;DHT22;20140;49.356;8.812;2023-01-19T14:57:19;2.70;99.90
33837;DHT22;20140;49.356;8.812;2023-01-19T14:59:44;2.70;99.90
33837;DHT22;20140;49.356;8.812;2023-01-19T15:02:14;2.70;99.90
33837;DHT22;20140;49.356;8.812;2023-01-19T15:04:39;2.70;99.90
33837;DHT22;20140;49.356;8.812;2023-01-19T15:07:05;2.80;99.90
33837;DHT22;20140;49.356;8.812;2023-01-19T15:09:31;2.80;99.90
33837;DHT22;20140;49.356;8.812;2023-01-19T15:11:57;2.80;99.90
33837;DHT22;20140;49.356;8.812;2023-01-19T15:14:23;2.80;99.90
33837;DHT22;20140;49.356;8.812;2023-01-19T15:16:49;2.80;99.90
33837;DHT22;20140;49.356;8.812;2023-01-19T15:19:16;2.80;99.90
33837;DHT22;20140;49.356;8.812;2023-01-19T15:21:42;2.70;99.90
33837;DHT22;20140;49.356;8.812;2023-01-19T15:24:10;2.60;99.90
33837;DHT22;20140;49.356;8.812;2023-01-19T15:26:38;2.60;99.90
33837;DHT22;20140;49.356;8.812;2023-01-19T15:31:38;2.60;99.90
33837;DHT22;20140;49.356;8.812;2023-01-19T15:34:04;2.60;99.90
33837;DHT22;20140;49.356;8.812;2023-01-19T15:36:29;2.50;99.90
33837;DHT22;20140;49.356;8.812;2023-01-19T15:38:55;2.50;99.90
33837;DHT22;20140;49.356;8.812;2023-01-19T15:41:26;2.50;99.90
33837;DHT22;20140;49.356;8.812;2023-01-19T15:43:52;2.50;99.90
33837;DHT22;20140;49.356;8.812;2023-01-19T15:46:19;2.50;99.90
33837;DHT22;20140;49.356;8.812;2023-01-19T15:48:45;2.50;99.90
33837;DHT22;20140;49.356;8.812;2023-01-19T15:51:16;2.40;99.90
33837;DHT22;20140;49.356;8.812;2023-01-19T15:53:42;2.40;99.90
33837;DHT22;20140;49.356;8.812;2023-01-19T15:56:16;2.30;99.90
33837;DHT22;20140;49.356;8.812;2023-01-19T15:58:42;2.30;99.90
33837;DHT22;20140;49.356;8.812;2023-01-19T16:01:12;2.40;99.90
33837;DHT22;20140;49.356;8.812;2023-01-19T16:03:38;2.40;99.90
33837;DHT22;20140;49.356;8.812;2023-01-19T16:06:04;2.40;99.90
33837;DHT22;20140;49.356;8.812;2023-01-19T16:08:29;2.50;99.90
33837;DHT22;20140;49.356;8.812;2023-01-19T16:10:55;2.50;99.90
33837;DHT22;20140;49.356;8.812;2023-01-19T16:13:20;2.50;99.90
33837;DHT22;20140;49.356;8.812;2023-01-19T16:15:46;2.50;99.90
33837;DHT22;20140;49.356;8.812;2023-01-19T16:18:11;2.60;99.90
33837;DHT22;20140;49.356;8.812;2023-01-19T16:20:37;2.50;99.90
33837;DHT22;20140;49.356;8.812;2023-01-19T16:23:20;2.60;99.90
33837;DHT22;20140;49.356;8.812;2023-01-19T16:25:58;2.50;99.90
33837;DHT22;20140;49.356;8.812;2023-01-19T16:28:25;2.60;99.90
33837;DHT22;20140;49.356;8.812;2023-01-19T16:30:51;2.50;99.90
33837;DHT22;20140;49.356;8.812;2023-01-19T16:33:17;2.40;99.90
33837;DHT22;20140;49.356;8.812;2023-01-19T16:35:43;2.40;99.90
33837;DHT22;20140;49.356;8.812;2023-01-19T16:38:08;2.30;99.90
33837;DHT22;20140;49.356;8.812;2023-01-19T16:40:34;2.30;99.90
33837;DHT22;20140;49.356;8.812;2023-01-19T16:43:00;2.30;99.90
33837;DHT22;20140;49.356;8.812;2023-01-19T16:45:25;2.30;99.90
33837;DHT22;20140;49.356;8.812;2023-01-19T16:47:51;2.30;99.90
33837;DHT22;20140;49.356;8.812;2023-01-19T16:50:17;2.30;99.90
33837;DHT22;20140;49.356;8.812;2023-01-19T16:52:43;2.20;99.90
33837;DHT22;20140;49.356;8.812;2023-01-19T16:55:09;2.20;99.90
33837;DHT22;20140;49.356;8.812;2023-01-19T16:57:36;2.10;99.90
33837;DHT22;20140;49.356;8.812;2023-01-19T17:00:06;2.00;99.90
33837;DHT22;20140;49.356;8.812;2023-01-19T17:02:32;2.00;99.90
33837;DHT22;20140;49.356;8.812;2023-01-19T17:04:57;2.00;99.90
33837;DHT22;20140;49.356;8.812;2023-01-19T17:07:26;1.90;99.90
33837;DHT22;20140;49.356;8.812;2023-01-19T17:09:52;1.70;99.90
33837;DHT22;20140;49.356;8.812;2023-01-19T17:12:18;1.70;99.90
33837;DHT22;20140;49.356;8.812;2023-01-19T17:14:44;1.70;99.90
33837;DHT22;20140;49.356;8.812;2023-01-19T17:17:12;1.70;99.90
33837;DHT22;20140;49.356;8.812;2023-01-19T17:19:37;1.70;99.90
33837;DHT22;20140;49.356;8.812;2023-01-19T17:22:04;1.50;99.90
33837;DHT22;20140;49.356;8.812;2023-01-19T17:24:30;1.50;99.90
33837;DHT22;20140;49.356;8.812;2023-01-19T17:26:56;1.60;99.90
33837;DHT22;20140;49.356;8.812;2023-01-19T17:29:21;1.50;99.90
33837;DHT22;20140;49.356;8.812;2023-01-19T17:31:49;1.50;99.90
33837;DHT22;20140;49.356;8.812;2023-01-19T17:34:14;1.50;99.90
33837;DHT22;20140;49.356;8.812;2023-01-19T17:36:40;1.50;99.90
33837;DHT22;20140;49.356;8.812;2023-01-19T17:39:08;1.50;99.90
33837;DHT22;20140;49.356;8.812;2023-01-19T17:41:35;1.50;99.90
33837;DHT22;20140;49.356;8.812;2023-01-19T17:44:03;1.50;99.90
33837;DHT22;20140;49.356;8.812;2023-01-19T17:46:29;1.50;99.90
33837;DHT22;20140;49.356;8.812;2023-01-19T17:48:57;1.60;99.90
33837;DHT22;20140;49.356;8.812;2023-01-19T17:51:24;1.60;99.90
33837;DHT22;20140;49.356;8.812;2023-01-19T17:53:51;1.60;99.90
33837;DHT22;20140;49.356;8.812;2023-01-19T17:56:19;1.60;99.90
33837;DHT22;20140;49.356;8.812;2023-01-19T17:58:48;1.50;99.90
33837;DHT22;20140;49.356;8.812;2023-01-19T18:03:41;1.60;99.90
33837;DHT22;20140;49.356;8.812;2023-01-19T18:06:07;1.60;99.90
33837;DHT22;20140;49.356;8.812;2023-01-19T18:08:33;1.50;99.90
33837;DHT22;20140;49.356;8.812;2023-01-19T18:11:01;1.50;99.90
33837;DHT22;20140;49.356;8.812;2023-01-19T18:13:27;1.50;99.90
33837;DHT22;20140;49.356;8.812;2023-01-19T18:16:03;1.50;99.90
33837;DHT22;20140;49.356;8.812;2023-01-19T18:18:29;1.50;99.90
33837;DHT22;20140;49.356;8.812;2023-01-19T18:20:59;1.60;99.90
33837;DHT22;20140;49.356;8.812;2023-01-19T18:23:25;1.50;99.90
33837;DHT22;20140;49.356;8.812;2023-01-19T18:25:58;1.50;99.90
33837;DHT22;20140;49.356;8.812;2023-01-19T18:28:24;1.50;99.90
33837;DHT22;20140;49.356;8.812;2023-01-19T18:30:50;1.40;99.90
33837;DHT22;20140;49.356;8.812;2023-01-19T18:33:15;1.40;99.90
33837;DHT22;20140;49.356;8.812;2023-01-19T18:35:41;1.40;99.90
33837;DHT22;20140;49.356;8.812;2023-01-19T18:38:06;1.40;99.90
33837;DHT22;20140;49.356;8.812;2023-01-19T18:40:32;1.40;99.90
33837;DHT22;20140;49.356;8.812;2023-01-19T18:42:57;1.40;99.90
33837;DHT22;20140;49.356;8.812;2023-01-19T18:45:23;1.40;99.90
33837;DHT22;20140;49.356;8.812;2023-01-19T18:47:48;1.40;99.90
33837;DHT22;20140;49.356;8.812;2023-01-19T18:50:16;1.40;99.90
33837;DHT22;20140;49.356;8.812;2023-01-19T18:52:43;1.40;99.90